createdAt,value
2022-09-10T00:01:06.351Z,89.52
2022-09-10T00:03:23.195Z,91.37
2022-09-10T00:05:40.195Z,90.75
2022-09-10T00:07:57.088Z,91.43
2022-09-10T00:10:13.920Z,91.57
2022-09-10T00:12:30.807Z,91.76
2022-09-10T00:14:47.719Z,91.97
2022-09-10T00:17:04.592Z,90.11
2022-09-10T00:19:21.516Z,91.68
2022-09-10T00:21:38.382Z,90.13
2022-09-10T00:23:55.230Z,90.95
2022-09-10T00:26:12.052Z,90.34
2022-09-10T00:28:28.964Z,90.96
2022-09-10T00:30:45.868Z,90.42
2022-09-10T00:33:02.760Z,92.60
2022-09-10T00:35:19.578Z,92.52
2022-09-10T00:37:36.464Z,92.43
2022-09-10T00:39:53.490Z,92.15
2022-09-10T00:42:10.404Z,93.06
2022-09-10T00:44:27.243Z,92.94
2022-09-10T00:46:44.133Z,92.84
2022-09-10T00:49:01.030Z,92.21
2022-09-10T00:51:17.969Z,91.88
2022-09-10T00:53:34.864Z,90.42
2022-09-10T00:55:51.787Z,90.93
2022-09-10T00:58:08.655Z,91.27
2022-09-10T01:00:25.494Z,91.75
2022-09-10T01:02:42.390Z,91.89
2022-09-10T01:04:59.239Z,91.99
2022-09-10T01:07:16.186Z,92.25
2022-09-10T01:09:33.035Z,91.66
2022-09-10T01:11:49.878Z,91.85
2022-09-10T01:14:06.716Z,91.89
2022-09-10T01:16:23.689Z,92.66
2022-09-10T01:18:40.578Z,90.79
2022-09-10T01:20:57.431Z,92.48
2022-09-10T01:23:17.596Z,92.14
2022-09-10T01:25:34.825Z,91.65
2022-09-10T01:27:51.712Z,92.58
2022-09-10T01:30:08.590Z,91.94
2022-09-10T01:32:25.424Z,91.19
2022-09-10T01:34:42.316Z,91.12
2022-09-10T01:36:59.206Z,91.23
2022-09-10T01:39:16.053Z,91.62
2022-09-10T01:41:33.122Z,90.60
2022-09-10T01:43:49.942Z,92.43
2022-09-10T01:46:06.752Z,90.65
2022-09-10T01:48:23.634Z,91.65
2022-09-10T01:50:40.521Z,92.14
2022-09-10T01:52:57.403Z,90.74
2022-09-10T01:55:14.312Z,91.27
2022-09-10T01:57:31.165Z,91.75
2022-09-10T01:59:48.008Z,92.07
2022-09-10T02:02:04.946Z,91.17
2022-09-10T02:04:21.836Z,91.61
2022-09-10T02:06:38.738Z,90.96
2022-09-10T02:08:55.560Z,91.26
2022-09-10T02:11:12.461Z,91.43
2022-09-10T02:13:29.278Z,91.86
2022-09-10T02:15:46.134Z,91.72
2022-09-10T02:18:03.026Z,91.81
2022-09-10T02:20:19.966Z,90.13
2022-09-10T02:22:36.903Z,89.97
2022-09-10T02:24:53.784Z,90.55
2022-09-10T02:27:10.860Z,90.56
2022-09-10T02:29:27.765Z,90.36
2022-09-10T02:31:44.647Z,90.47
2022-09-10T02:34:01.498Z,90.94
2022-09-10T02:36:18.366Z,88.91
2022-09-10T02:38:35.203Z,90.41
2022-09-10T02:40:52.100Z,91.12
2022-09-10T02:43:08.933Z,90.71
2022-09-10T02:45:25.896Z,90.86
2022-09-10T02:47:42.834Z,91.74
2022-09-10T02:49:59.657Z,91.05
2022-09-10T02:52:16.678Z,91.77
2022-09-10T02:54:33.552Z,91.75
2022-09-10T02:56:50.408Z,90.53
2022-09-10T02:59:07.266Z,91.20
2022-09-10T03:01:24.129Z,92.20
2022-09-10T03:03:41.030Z,92.20
2022-09-10T03:05:57.899Z,92.12
2022-09-10T03:08:14.746Z,92.42
2022-09-10T03:10:31.600Z,91.12
2022-09-10T03:12:48.456Z,91.58
2022-09-10T03:15:05.288Z,90.71
2022-09-10T03:17:22.133Z,92.55
2022-09-10T03:19:38.965Z,91.52
2022-09-10T03:21:55.843Z,90.79
2022-09-10T03:24:15.244Z,90.42
2022-09-10T03:26:32.285Z,91.80
2022-09-10T03:28:49.147Z,90.39
2022-09-10T03:31:05.974Z,90.76
2022-09-10T03:33:22.882Z,92.29
2022-09-10T03:35:39.687Z,91.46
2022-09-10T03:37:56.569Z,92.03
2022-09-10T03:40:13.443Z,92.54
2022-09-10T03:42:30.335Z,92.19
2022-09-10T03:44:47.222Z,90.78
2022-09-10T03:47:04.129Z,92.37
2022-09-10T03:49:20.942Z,91.37
2022-09-10T03:51:37.821Z,92.17
2022-09-10T03:53:54.664Z,92.75
2022-09-10T03:56:11.565Z,93.21
2022-09-10T03:58:28.460Z,91.33
2022-09-10T04:00:45.327Z,91.75
2022-09-10T04:03:02.194Z,90.68
2022-09-10T04:05:19.039Z,91.01
2022-09-10T04:07:35.871Z,92.72
2022-09-10T04:09:52.738Z,91.73
2022-09-10T04:12:09.628Z,92.04
2022-09-10T04:14:26.520Z,90.89
2022-09-10T04:16:43.386Z,90.90
2022-09-10T04:19:00.795Z,91.60
2022-09-10T04:21:17.673Z,90.48
2022-09-10T04:23:34.503Z,92.51
2022-09-10T04:25:51.399Z,91.66
2022-09-10T04:28:08.244Z,91.70
2022-09-10T04:30:25.105Z,93.20
2022-09-10T04:32:41.960Z,91.35
2022-09-10T04:34:58.825Z,91.51
2022-09-10T04:37:19.239Z,93.33
2022-09-10T04:39:36.417Z,93.18
2022-09-10T04:41:53.333Z,92.04
2022-09-10T04:44:10.221Z,92.16
2022-09-10T04:46:27.105Z,92.11
2022-09-10T04:48:43.935Z,93.50
2022-09-10T04:51:15.751Z,93.22
2022-09-10T04:53:33.629Z,93.60
2022-09-10T04:55:50.512Z,91.82
2022-09-10T04:58:07.681Z,93.11
2022-09-10T05:00:24.566Z,91.97
2022-09-10T05:02:41.420Z,92.38
2022-09-10T05:04:58.251Z,92.23
2022-09-10T05:07:15.160Z,92.46
2022-09-10T05:09:31.990Z,92.42
2022-09-10T05:11:48.838Z,92.47
2022-09-10T05:14:05.719Z,93.25
2022-09-10T05:16:22.857Z,93.12
2022-09-10T05:18:39.845Z,92.91
2022-09-10T05:20:56.798Z,93.29
2022-09-10T05:23:13.648Z,94.07
2022-09-10T05:25:30.459Z,94.10
2022-09-10T05:27:47.400Z,94.70
2022-09-10T05:30:04.333Z,94.77
2022-09-10T05:32:21.160Z,93.68
2022-09-10T05:34:38.023Z,95.18
2022-09-10T05:36:54.865Z,95.32
2022-09-10T05:39:11.681Z,94.20
2022-09-10T05:41:28.603Z,95.04
2022-09-10T05:43:45.548Z,94.01
2022-09-10T05:46:02.469Z,95.47
2022-09-10T05:48:19.352Z,95.02
2022-09-10T05:50:36.199Z,95.38
2022-09-10T05:52:53.042Z,95.32
2022-09-10T05:55:09.938Z,93.94
2022-09-10T05:57:26.847Z,94.78
2022-09-10T05:59:43.685Z,93.79
2022-09-10T06:02:00.633Z,93.94
2022-09-10T06:04:17.554Z,93.75
2022-09-10T06:06:34.441Z,95.18
2022-09-10T06:08:51.277Z,94.95
2022-09-10T06:11:08.116Z,94.18
2022-09-10T06:13:25.004Z,95.06
2022-09-10T06:15:41.851Z,94.67
2022-09-10T06:17:58.721Z,94.22
2022-09-10T06:20:15.556Z,93.93
2022-09-10T06:22:32.435Z,95.06
2022-09-10T06:24:49.258Z,94.35
2022-09-10T06:27:06.065Z,94.39
2022-09-10T06:29:22.965Z,94.63
2022-09-10T06:31:39.808Z,95.19
2022-09-10T06:33:56.624Z,94.31
2022-09-10T06:36:13.478Z,94.93
2022-09-10T06:38:30.338Z,95.00
2022-09-10T06:40:47.161Z,94.61
2022-09-10T06:43:04.047Z,94.36
2022-09-10T06:45:20.933Z,94.52
2022-09-10T06:50:14.664Z,94.22
2022-09-10T06:52:31.499Z,93.37
2022-09-10T06:54:48.361Z,93.38
2022-09-10T06:57:05.217Z,93.33
2022-09-10T06:59:22.049Z,92.90
2022-09-10T07:01:38.981Z,93.33
2022-09-10T07:03:55.859Z,92.45
2022-09-10T07:06:12.683Z,92.24
2022-09-10T07:08:29.569Z,91.62
2022-09-10T07:10:46.431Z,90.82
2022-09-10T07:13:03.290Z,92.26
2022-09-10T07:15:20.146Z,92.74
2022-09-10T07:17:37.059Z,88.95
2022-09-10T07:19:53.920Z,89.85
2022-09-10T07:22:10.744Z,90.05
2022-09-10T07:24:27.629Z,89.25
2022-09-10T07:26:44.467Z,89.30
2022-09-10T07:29:01.346Z,90.14
2022-09-10T07:31:18.212Z,89.50
2022-09-10T07:33:35.038Z,89.41
2022-09-10T07:35:51.949Z,87.88
2022-09-10T07:38:08.791Z,88.56
2022-09-10T07:40:25.779Z,86.31
2022-09-10T07:42:42.660Z,87.11
2022-09-10T07:44:59.495Z,86.33
2022-09-10T07:47:16.390Z,86.09
2022-09-10T07:49:33.225Z,86.08
2022-09-10T07:51:50.123Z,87.08
2022-09-10T07:54:07.000Z,85.15
2022-09-10T07:56:23.871Z,85.07
2022-09-10T07:58:40.806Z,85.77
2022-09-10T08:00:57.782Z,85.51
2022-09-10T08:03:14.773Z,84.58
2022-09-10T08:05:31.599Z,84.29
2022-09-10T08:07:48.440Z,82.94
2022-09-10T08:10:05.298Z,84.34
2022-09-10T08:12:22.199Z,84.38
2022-09-10T08:14:39.064Z,82.88
2022-09-10T08:16:55.939Z,83.65
2022-09-10T08:19:12.757Z,82.12
2022-09-10T08:21:29.634Z,82.99
2022-09-10T08:23:46.469Z,84.00
2022-09-10T08:26:03.347Z,82.04
2022-09-10T08:28:24.807Z,79.69
2022-09-10T08:30:42.342Z,80.07
2022-09-10T08:32:59.195Z,80.04
2022-09-10T08:35:16.025Z,80.97
2022-09-10T08:37:32.911Z,81.10
2022-09-10T08:39:49.791Z,79.99
2022-09-10T08:42:06.635Z,81.15
2022-09-10T08:44:23.729Z,81.46
2022-09-10T08:46:40.555Z,79.34
2022-09-10T08:48:58.503Z,81.09
2022-09-10T08:51:15.472Z,80.44
2022-09-10T08:53:32.390Z,80.00
2022-09-10T08:55:49.211Z,79.52
2022-09-10T08:58:06.055Z,80.03
2022-09-10T09:00:22.930Z,82.47
2022-09-10T09:02:48.716Z,81.42
2022-09-10T09:05:06.552Z,79.84
2022-09-10T09:07:23.587Z,82.37
2022-09-10T09:09:40.425Z,82.46
2022-09-10T09:11:57.299Z,83.31
2022-09-10T09:14:14.151Z,82.71
2022-09-10T09:16:31.047Z,82.25
2022-09-10T09:18:47.870Z,82.61
2022-09-10T09:21:04.733Z,80.89
2022-09-10T09:23:21.638Z,82.47
2022-09-10T09:25:38.525Z,83.59
2022-09-10T09:27:55.391Z,83.33
2022-09-10T09:30:12.281Z,84.00
2022-09-10T09:32:29.282Z,84.04
2022-09-10T09:34:46.087Z,81.73
2022-09-10T09:37:02.964Z,81.41
2022-09-10T09:39:22.846Z,82.35
2022-09-10T09:41:41.817Z,83.37
2022-09-10T09:43:58.764Z,82.25
2022-09-10T09:46:15.838Z,83.43
2022-09-10T09:48:32.856Z,82.90
2022-09-10T09:50:49.904Z,80.87
2022-09-10T09:53:06.771Z,82.28
2022-09-10T09:55:23.634Z,81.41
2022-09-10T09:57:40.468Z,81.97
2022-09-10T09:59:57.416Z,81.64
2022-09-10T10:02:14.447Z,84.22
2022-09-10T10:04:31.532Z,84.67
2022-09-10T10:06:48.456Z,84.89
2022-09-10T10:09:05.362Z,85.03
2022-09-10T10:11:22.264Z,85.65
2022-09-10T10:13:39.186Z,83.43
2022-09-10T10:15:56.110Z,84.57
2022-09-10T10:18:12.991Z,80.84
2022-09-10T10:20:29.877Z,81.95
2022-09-10T10:22:46.992Z,78.91
2022-09-10T10:25:03.847Z,76.05
2022-09-10T10:27:20.704Z,74.52
2022-09-10T10:29:37.625Z,74.58
2022-09-10T10:31:54.498Z,72.60
2022-09-10T10:34:11.490Z,71.71
2022-09-10T10:36:28.359Z,71.45
2022-09-10T10:38:45.378Z,73.36
2022-09-10T10:41:02.312Z,73.02
2022-09-10T10:43:19.185Z,72.45
2022-09-10T10:45:36.103Z,72.36
2022-09-10T10:47:53.008Z,73.79
2022-09-10T10:50:09.881Z,74.40
2022-09-10T10:52:26.821Z,75.34
2022-09-10T10:54:43.656Z,75.52
2022-09-10T10:57:00.565Z,74.60
2022-09-10T10:59:17.466Z,73.91
2022-09-10T11:01:34.419Z,73.20
2022-09-10T11:03:51.369Z,73.25
2022-09-10T11:06:08.251Z,73.70
2022-09-10T11:08:25.121Z,73.82
2022-09-10T11:10:42.027Z,75.71
2022-09-10T11:12:58.923Z,76.82
2022-09-10T11:15:15.791Z,77.57
2022-09-10T11:17:32.673Z,77.33
2022-09-10T11:20:00.597Z,76.11
2022-09-10T11:22:26.438Z,76.46
2022-09-10T11:24:43.556Z,73.95
2022-09-10T11:27:00.405Z,73.59
2022-09-10T11:29:17.312Z,72.16
2022-09-10T11:31:34.183Z,69.90
2022-09-10T11:33:51.073Z,70.07
2022-09-10T11:36:07.934Z,71.75
2022-09-10T11:38:24.823Z,70.82
2022-09-10T11:40:41.669Z,71.32
2022-09-10T11:42:58.586Z,71.56
2022-09-10T11:45:15.529Z,71.81
2022-09-10T11:47:32.452Z,70.76
2022-09-10T11:49:49.342Z,70.71
2022-09-10T11:52:06.273Z,69.31
2022-09-10T11:54:23.175Z,70.10
2022-09-10T11:56:40.135Z,70.15
2022-09-10T11:58:57.001Z,67.69
2022-09-10T12:01:13.868Z,68.82
2022-09-10T12:03:30.888Z,66.73
2022-09-10T12:05:47.757Z,64.71
2022-09-10T12:08:04.595Z,64.41
2022-09-10T12:10:21.485Z,64.46
2022-09-10T12:12:38.387Z,60.96
2022-09-10T12:14:56.266Z,60.67
2022-09-10T12:17:13.186Z,61.94
2022-09-10T12:19:30.064Z,61.82
2022-09-10T12:21:46.946Z,61.41
2022-09-10T12:24:03.860Z,62.84
2022-09-10T12:26:20.770Z,62.73
2022-09-10T12:28:37.681Z,62.60
2022-09-10T12:30:54.672Z,62.59
2022-09-10T12:33:11.582Z,63.82
2022-09-10T12:35:28.492Z,61.89
2022-09-10T12:37:45.438Z,59.62
2022-09-10T12:40:02.495Z,62.23
2022-09-10T12:42:19.552Z,62.50
2022-09-10T12:44:36.479Z,62.69
2022-09-10T12:46:53.443Z,62.32
2022-09-10T12:49:10.313Z,60.32
2022-09-10T12:51:27.195Z,60.06
2022-09-10T12:53:44.116Z,60.15
2022-09-10T12:56:00.982Z,61.32
2022-09-10T12:58:17.864Z,60.50
2022-09-10T13:00:34.755Z,60.56
2022-09-10T13:02:51.601Z,61.99
2022-09-10T13:05:08.529Z,60.53
2022-09-10T13:07:25.361Z,62.02
2022-09-10T13:09:42.226Z,61.56
2022-09-10T13:11:59.103Z,62.72
2022-09-10T13:14:15.986Z,64.01
2022-09-10T13:16:33.086Z,65.94
2022-09-10T13:18:51.890Z,65.06
2022-09-10T13:21:10.725Z,64.09
2022-09-10T13:23:27.599Z,64.39
2022-09-10T13:25:44.507Z,63.48
2022-09-10T13:28:01.350Z,63.20
2022-09-10T13:30:18.230Z,63.82
2022-09-10T13:32:35.133Z,63.84
2022-09-10T13:34:52.003Z,63.45
2022-09-10T13:37:08.912Z,62.76
2022-09-10T13:39:25.746Z,63.38
2022-09-10T13:41:42.582Z,61.68
2022-09-10T13:44:01.190Z,60.60
2022-09-10T13:46:18.459Z,61.59
2022-09-10T13:48:35.416Z,61.18
2022-09-10T13:50:52.308Z,61.94
2022-09-10T13:53:09.179Z,59.94
2022-09-10T13:55:26.073Z,61.35
2022-09-10T13:57:42.916Z,58.68
2022-09-10T13:59:59.821Z,59.94
2022-09-10T14:02:16.772Z,59.73
2022-09-10T14:04:33.682Z,58.41
2022-09-10T14:06:50.530Z,57.39
2022-09-10T14:09:07.426Z,58.63
2022-09-10T14:11:24.365Z,59.65
2022-09-10T14:13:41.425Z,58.20
2022-09-10T14:15:58.505Z,58.09
2022-09-10T14:18:15.485Z,58.29
2022-09-10T14:20:32.369Z,58.32
2022-09-10T14:22:49.260Z,58.20
2022-09-10T14:25:06.184Z,56.54
2022-09-10T14:27:23.015Z,58.02
2022-09-10T14:29:39.925Z,59.35
2022-09-10T14:31:56.782Z,59.70
2022-09-10T14:34:13.644Z,59.44
2022-09-10T14:36:30.556Z,60.05
2022-09-10T14:38:47.439Z,60.03
2022-09-10T14:41:08.556Z,59.99
2022-09-10T14:43:25.703Z,60.46
2022-09-10T14:45:42.630Z,62.72
2022-09-10T14:47:59.470Z,64.34
2022-09-10T14:50:16.360Z,65.64
2022-09-10T14:52:33.261Z,66.80
2022-09-10T14:54:50.165Z,66.82
2022-09-10T14:57:07.021Z,66.35
2022-09-10T14:59:23.921Z,67.34
2022-09-10T15:01:40.810Z,68.88
2022-09-10T15:03:57.704Z,68.94
2022-09-10T15:06:14.566Z,66.92
2022-09-10T15:08:31.413Z,67.71
2022-09-10T15:10:48.274Z,68.84
2022-09-10T15:13:05.109Z,68.78
2022-09-10T15:15:22.015Z,67.33
2022-09-10T15:17:38.903Z,67.49
2022-09-10T15:19:55.855Z,67.59
2022-09-10T15:22:12.734Z,66.40
2022-09-10T15:24:29.658Z,66.55
2022-09-10T15:26:46.531Z,63.96
2022-09-10T15:29:03.412Z,64.07
2022-09-10T15:31:20.286Z,62.45
2022-09-10T15:33:37.167Z,61.45
2022-09-10T15:35:54.022Z,62.24
2022-09-10T15:38:10.921Z,62.45
2022-09-10T15:40:27.841Z,63.43
2022-09-10T15:42:44.708Z,63.19
2022-09-10T15:45:01.657Z,65.53
2022-09-10T15:47:18.579Z,64.67
2022-09-10T15:49:35.495Z,66.11
2022-09-10T15:51:52.400Z,66.73
2022-09-10T15:54:09.313Z,66.15
2022-09-10T15:56:26.153Z,67.10
2022-09-10T15:58:43.008Z,66.95
2022-09-10T16:01:00.094Z,67.31
2022-09-10T16:03:16.974Z,67.99
2022-09-10T16:05:33.826Z,69.09
2022-09-10T16:07:50.705Z,69.40
2022-09-10T16:10:07.599Z,69.71
2022-09-10T16:12:24.544Z,69.44
2022-09-10T16:14:41.466Z,70.53
2022-09-10T16:16:58.358Z,70.40
2022-09-10T16:19:15.242Z,70.51
2022-09-10T16:21:32.156Z,70.87
2022-09-10T16:23:49.052Z,71.52
2022-09-10T16:26:05.952Z,70.27
2022-09-10T16:28:22.933Z,70.86
2022-09-10T16:30:39.786Z,70.52
2022-09-10T16:32:56.704Z,71.60
2022-09-10T16:35:13.608Z,71.79
2022-09-10T16:37:30.500Z,72.06
2022-09-10T16:39:47.384Z,71.63
2022-09-10T16:42:04.322Z,72.79
2022-09-10T16:44:21.208Z,73.04
2022-09-10T16:46:38.114Z,74.07
2022-09-10T16:48:55.023Z,74.53
2022-09-10T16:51:11.905Z,74.49
2022-09-10T16:53:28.831Z,76.13
2022-09-10T16:55:45.735Z,79.13
2022-09-10T16:58:02.597Z,78.80
2022-09-10T17:00:19.515Z,78.57
2022-09-10T17:02:36.635Z,78.96
2022-09-10T17:04:53.470Z,80.56
2022-09-10T17:07:10.379Z,81.94
2022-09-10T17:09:27.302Z,82.36
2022-09-10T17:11:44.223Z,83.86
2022-09-10T17:14:01.050Z,84.35
2022-09-10T17:16:17.990Z,84.11
2022-09-10T17:18:35.053Z,84.87
2022-09-10T17:20:51.876Z,84.53
2022-09-10T17:23:08.767Z,83.45
2022-09-10T17:25:25.645Z,82.74
2022-09-10T17:27:42.508Z,82.63
2022-09-10T17:29:59.519Z,80.60
2022-09-10T17:32:16.333Z,80.89
2022-09-10T17:34:33.206Z,80.51
2022-09-10T17:36:50.092Z,80.74
2022-09-10T17:39:06.962Z,81.95
2022-09-10T17:41:23.826Z,82.86
2022-09-10T17:43:40.836Z,81.11
2022-09-10T17:45:57.866Z,81.62
2022-09-10T17:48:14.706Z,81.38
2022-09-10T17:50:31.638Z,83.16
2022-09-10T17:52:48.501Z,83.74
2022-09-10T17:55:05.389Z,83.27
2022-09-10T17:57:22.297Z,85.28
2022-09-10T17:59:39.120Z,84.09
2022-09-10T18:01:55.990Z,84.57
2022-09-10T18:04:12.884Z,84.32
2022-09-10T18:06:29.767Z,84.08
2022-09-10T18:08:46.651Z,85.90
2022-09-10T18:11:03.581Z,86.40
2022-09-10T18:13:20.475Z,87.19
2022-09-10T18:15:37.413Z,87.33
2022-09-10T18:17:54.288Z,86.93
2022-09-10T18:20:11.145Z,84.94
2022-09-10T18:22:27.986Z,87.49
2022-09-10T18:24:44.846Z,85.20
2022-09-10T18:27:01.758Z,85.76
2022-09-10T18:29:18.634Z,85.54
2022-09-10T18:31:35.561Z,86.49
2022-09-10T18:33:52.931Z,86.39
2022-09-10T18:36:09.876Z,87.33
2022-09-10T18:38:26.727Z,87.44
2022-09-10T18:40:43.617Z,87.67
2022-09-10T18:43:00.471Z,86.92
2022-09-10T18:45:17.381Z,84.43
2022-09-10T18:47:44.671Z,83.12
2022-09-10T18:50:02.004Z,84.35
2022-09-10T18:52:18.943Z,84.84
2022-09-10T18:54:35.845Z,83.22
2022-09-10T18:56:52.715Z,85.45
2022-09-10T18:59:09.596Z,84.07
2022-09-10T19:01:26.516Z,84.04
2022-09-10T19:03:43.466Z,84.10
2022-09-10T19:06:00.309Z,83.85
2022-09-10T19:08:17.209Z,84.38
2022-09-10T19:10:34.081Z,83.71
2022-09-10T19:12:50.926Z,82.71
2022-09-10T19:15:07.875Z,84.03
2022-09-10T19:17:24.722Z,82.98
2022-09-10T19:19:41.597Z,83.58
2022-09-10T19:21:58.435Z,83.14
2022-09-10T19:24:15.347Z,83.43
2022-09-10T19:26:32.178Z,84.64
2022-09-10T19:28:49.044Z,83.46
2022-09-10T19:31:06.009Z,84.05
2022-09-10T19:33:22.952Z,82.91
2022-09-10T19:35:39.779Z,83.98
2022-09-10T19:37:56.709Z,84.99
2022-09-10T19:40:13.655Z,84.75
2022-09-10T19:42:30.770Z,84.17
2022-09-10T19:44:47.643Z,85.65
2022-09-10T19:47:04.533Z,85.88
2022-09-10T19:49:21.395Z,85.78
2022-09-10T19:51:38.242Z,85.53
2022-09-10T19:53:55.105Z,85.44
2022-09-10T19:56:11.966Z,84.66
2022-09-10T19:58:28.816Z,85.22
2022-09-10T20:00:47.088Z,85.39
2022-09-10T20:03:04.147Z,84.25
2022-09-10T20:05:21.098Z,85.25
2022-09-10T20:07:37.938Z,85.36
2022-09-10T20:09:54.853Z,86.15
2022-09-10T20:12:11.725Z,85.83
2022-09-10T20:14:28.647Z,87.01
2022-09-10T20:16:45.477Z,86.39
2022-09-10T20:19:02.391Z,85.82
2022-09-10T20:21:19.256Z,85.69
2022-09-10T20:23:36.094Z,86.66
2022-09-10T20:25:52.966Z,87.24
2022-09-10T20:28:09.831Z,87.06
2022-09-10T20:30:26.695Z,86.31
2022-09-10T20:32:43.599Z,86.30
2022-09-10T20:35:00.656Z,86.20
2022-09-10T20:37:17.477Z,87.22
2022-09-10T20:39:34.395Z,87.63
2022-09-10T20:41:51.291Z,87.90
2022-09-10T20:44:08.153Z,87.58
2022-09-10T20:46:25.095Z,88.09
2022-09-10T20:48:45.860Z,88.05
2022-09-10T20:51:05.298Z,87.79
2022-09-10T20:53:22.207Z,87.35
2022-09-10T20:55:39.042Z,86.94
2022-09-10T20:57:55.881Z,87.38
2022-09-10T21:00:12.776Z,87.60
2022-09-10T21:02:29.721Z,88.35
2022-09-10T21:04:46.633Z,88.35
2022-09-10T21:07:03.485Z,87.45
2022-09-10T21:09:20.430Z,87.41
2022-09-10T21:11:37.281Z,87.76
2022-09-10T21:13:54.161Z,87.77
2022-09-10T21:16:11.010Z,87.81
2022-09-10T21:18:27.838Z,88.41
2022-09-10T21:20:44.703Z,87.83
2022-09-10T21:23:01.572Z,88.42
2022-09-10T21:25:18.546Z,88.61
2022-09-10T21:27:35.407Z,88.99
2022-09-10T21:29:52.255Z,89.29
2022-09-10T21:32:09.157Z,89.05
2022-09-10T21:34:26.072Z,89.58
2022-09-10T21:36:42.920Z,88.90
2022-09-10T21:39:00.171Z,88.97
2022-09-10T21:41:17.059Z,89.58
2022-09-10T21:43:34.060Z,89.84
2022-09-10T21:45:50.937Z,89.74
2022-09-10T21:48:07.843Z,90.45
2022-09-10T21:50:24.757Z,90.01
2022-09-10T21:52:41.596Z,90.37
2022-09-10T21:54:58.498Z,90.67
2022-09-10T21:57:15.382Z,90.56
2022-09-10T21:59:32.320Z,91.16
2022-09-10T22:01:49.300Z,91.16
2022-09-10T22:04:06.337Z,90.68
2022-09-10T22:06:23.233Z,90.73
2022-09-10T22:08:40.214Z,91.15
2022-09-10T22:10:57.177Z,91.21
2022-09-10T22:13:14.049Z,90.43
2022-09-10T22:15:30.952Z,90.73
2022-09-10T22:17:47.794Z,89.87
2022-09-10T22:20:04.630Z,89.45
2022-09-10T22:22:21.528Z,89.69
2022-09-10T22:24:38.455Z,89.45
2022-09-10T22:26:55.354Z,88.91
2022-09-10T22:29:12.183Z,88.69
2022-09-10T22:31:29.428Z,88.03
2022-09-10T22:33:46.812Z,88.43
2022-09-10T22:36:03.669Z,88.45
2022-09-10T22:38:20.554Z,88.13
2022-09-10T22:40:37.408Z,88.04
2022-09-10T22:42:54.330Z,87.84
2022-09-10T22:45:11.239Z,88.77
2022-09-10T22:47:28.112Z,88.50
2022-09-10T22:49:45.029Z,88.18
2022-09-10T22:52:01.938Z,88.71
2022-09-10T22:54:18.790Z,88.66
2022-09-10T22:56:35.690Z,88.36
2022-09-10T22:58:52.586Z,88.28
2022-09-10T23:01:09.507Z,88.18
2022-09-10T23:03:26.437Z,88.08
2022-09-10T23:05:43.285Z,89.51
2022-09-10T23:08:01.489Z,90.11
2022-09-10T23:10:18.437Z,89.09
2022-09-10T23:12:35.343Z,88.45
2022-09-10T23:14:52.281Z,88.84
2022-09-10T23:17:09.137Z,88.66
2022-09-10T23:19:26.013Z,89.19
2022-09-10T23:21:42.851Z,88.31
2022-09-10T23:23:59.802Z,89.47
2022-09-10T23:26:16.642Z,88.93
2022-09-10T23:28:33.577Z,89.04
2022-09-10T23:30:50.458Z,89.48
2022-09-10T23:33:07.329Z,88.16
2022-09-10T23:35:24.130Z,88.20
2022-09-10T23:37:40.973Z,89.57
2022-09-10T23:39:57.894Z,89.89
2022-09-10T23:42:14.835Z,89.80
2022-09-10T23:44:31.694Z,89.44
2022-09-10T23:46:48.656Z,90.14
2022-09-10T23:49:05.560Z,90.56
2022-09-10T23:51:22.403Z,90.15
2022-09-10T23:53:39.335Z,90.39
2022-09-10T23:55:56.255Z,90.73
2022-09-10T23:58:15.448Z,91.08
